Nearby METAR Reports


Data Updates Approximately Every Four (4) Hours

METAR is the international standard code format for hourly surface weather observations which is analogous to the SA coding currently used in the US. The acronym roughly translates from French as Aviation Routine Weather Report. SPECI is merely the code name given to METAR formatted products which are issued on a special non-routine basis as dictated by changing meteorological conditions. The SPECI acronym roughly translates as Aviation Selected Special Weather Report.
Source: NOAA-National Centers For Environmental Information.

KSLH - Cheboygan, Michigan, USA
Distance from station: W 9mi, 14km
Updated: 07/21/2024 10:15pm
Clear
Clear
 Wind from calm
Wind: Calm
Temperature: 59°F, 15°C
Dew Point: 55°F, 13°C
Humidity: 88%
Barometer: 30.11 inHg, 1019.6 hPa
Clouds: Clear
Visibility: 10 miles, 16 km
2024/07/22 02:15 KSLH 220215Z AUTO 00000KT 10SM CLR 15/13 A3011 RMK AO2
KMCD - Mackinac Island, Michigan, USA
Distance from station: NW 19mi, 31km
Updated: 07/21/2024 10:15pm
Clear
Clear
 Wind from NNE
Wind: NNE 6 mph, 9 km/h
Temperature: 64°F, 18°C
Dew Point: 52°F, 11°C
Humidity: 64%
Barometer: 30.12 inHg, 1020 hPa
Clouds: Clear
Visibility: 10 miles, 16 km
2024/07/22 02:15 KMCD 220215Z AUTO 02005KT 10SM CLR 18/11 A3012 RMK AO2 T01780107
 
KDRM - Drummond Is, Michigan, USA
Distance from station: NE 36mi, 59km
Updated: 07/21/2024 10:15pm
Clear
Clear
 Wind from calm
Wind: Calm
Temperature: 59°F, 15°C
Dew Point: 52°F, 11°C
Humidity: 77%
Barometer: 30.11 inHg, 1019.6 hPa
Clouds: Clear
Visibility: 10 miles, 16 km
2024/07/22 02:15 KDRM 220215Z AUTO 00000KT 10SM CLR 15/11 A3011 RMK AO2 T01500111
KPZQ - Rogers City, Michigan, USA
Distance from station: SE 31mi, 50km
Updated: 07/21/2024 10:15pm
Clear
Clear
 Wind from calm
Wind: Calm
Temperature: 57°F, 14°C
Dew Point: 50°F, 10°C
Humidity: 77%
Barometer: 30.12 inHg, 1020 hPa
Clouds: Clear
Visibility: 10 miles, 16 km
2024/07/22 02:15 KPZQ 220215Z AUTO 00000KT 10SM CLR 14/10 A3012 RMK AO2 T01350104
 
CYAM - Sault Ste Marie, Ontario, Canada
Distance from station: N 56mi, 90km
Updated: 07/21/2024 10:00pm
Partly cloudy
Partly cloudy
 Wind from calm
Wind: Calm
Temperature: 57°F, 14°C
Dew Point: 50°F, 10°C
Humidity: 77%
Barometer: 30.11 inHg, 1019.6 hPa
Clouds: Partly cloudy
Visibility: 20 miles, 32 km
Cloud details: Few Clouds 25000 ft
Partly cloudy 28000 ft
2024/07/22 02:00 CYAM 220200Z 00000KT 20SM FEW250 SCT280 14/10 A3011 RMK CI1CI2 SLP200
KANJ - Sault Ste Marie, Michigan, USA
Distance from station: N 56mi, 89km
Updated: 07/21/2024 9:55pm
Clear
Clear
 Wind from NW
Wind: NW 5 mph, 7 km/h
Temperature: 63°F, 17°C
Dew Point: 52°F, 11°C
Humidity: 68%
Barometer: 30.11 inHg, 1019.6 hPa
Clouds: Clear
Visibility: 10 miles, 16 km
2024/07/22 01:55 KANJ 220155Z AUTO 31004KT 10SM CLR 17/11 A3011 RMK AO2 SLP194 T01670111 $
 
KGLR - Gaylord, Michigan, USA
Distance from station: SSW 48mi, 77km
Updated: 07/21/2024 9:53pm
Clear
Clear
 Wind from NE
Wind: NE 8 mph, 13 km/h
Temperature: 70°F, 21°C
Dew Point: 52°F, 11°C
Humidity: 53%
Barometer: 30.13 inHg, 1020.3 hPa
Clouds: Clear
Visibility: 10 miles, 16 km
2024/07/22 01:53 KGLR 220153Z AUTO 05007KT 10SM CLR 21/11 A3013 RMK AO2 SLP198 T02060106
KPLN - Pellston, Michigan, USA
Distance from station: WSW 24mi, 38km
Updated: 07/21/2024 9:54pm
Clear
Clear
 Wind from calm
Wind: Calm
Temperature: 57°F, 14°C
Dew Point: 52°F, 11°C
Humidity: 82%
Barometer: 30.12 inHg, 1020 hPa
Clouds: Clear
Visibility: 10 miles, 16 km
2024/07/22 01:54 KPLN 220154Z AUTO 00000KT 10SM CLR 14/11 A3012 RMK AO2 SLP198 T01440111